sensor_id;sensor_type;location;lat;lon;timestamp;temperature;humidity
35607;DHT22;21729;58.392;15.656;2023-07-02T00:02:22;15.00;99.90
35607;DHT22;21729;58.392;15.656;2023-07-02T00:04:49;15.00;99.90
35607;DHT22;21729;58.392;15.656;2023-07-02T00:07:16;15.00;99.90
35607;DHT22;21729;58.392;15.656;2023-07-02T00:09:43;15.00;99.90
35607;DHT22;21729;58.392;15.656;2023-07-02T00:12:10;15.00;99.90
35607;DHT22;21729;58.392;15.656;2023-07-02T00:14:37;15.00;99.90
35607;DHT22;21729;58.392;15.656;2023-07-02T00:17:04;15.00;99.90
35607;DHT22;21729;58.392;15.656;2023-07-02T00:19:33;15.00;99.90
35607;DHT22;21729;58.392;15.656;2023-07-02T00:22:00;15.00;99.90
35607;DHT22;21729;58.392;15.656;2023-07-02T00:24:28;15.00;99.90
35607;DHT22;21729;58.392;15.656;2023-07-02T00:26:55;15.00;99.90
35607;DHT22;21729;58.392;15.656;2023-07-02T00:29:22;15.00;99.90
35607;DHT22;21729;58.392;15.656;2023-07-02T00:31:49;15.00;99.90
35607;DHT22;21729;58.392;15.656;2023-07-02T00:34:17;15.00;99.90
35607;DHT22;21729;58.392;15.656;2023-07-02T00:36:46;15.10;99.90
35607;DHT22;21729;58.392;15.656;2023-07-02T00:39:13;15.10;99.90
35607;DHT22;21729;58.392;15.656;2023-07-02T00:41:41;15.10;99.90
35607;DHT22;21729;58.392;15.656;2023-07-02T00:44:12;15.10;99.90
35607;DHT22;21729;58.392;15.656;2023-07-02T00:46:39;15.10;99.90
35607;DHT22;21729;58.392;15.656;2023-07-02T00:49:07;15.10;99.90
35607;DHT22;21729;58.392;15.656;2023-07-02T00:51:35;15.10;99.90
35607;DHT22;21729;58.392;15.656;2023-07-02T00:54:04;15.10;99.90
35607;DHT22;21729;58.392;15.656;2023-07-02T00:56:31;15.10;99.90
35607;DHT22;21729;58.392;15.656;2023-07-02T00:58:59;15.20;99.90
35607;DHT22;21729;58.392;15.656;2023-07-02T01:01:27;15.10;99.90
35607;DHT22;21729;58.392;15.656;2023-07-02T01:03:57;15.20;99.90
35607;DHT22;21729;58.392;15.656;2023-07-02T01:06:26;15.20;99.90
35607;DHT22;21729;58.392;15.656;2023-07-02T01:08:55;15.20;99.90
35607;DHT22;21729;58.392;15.656;2023-07-02T01:11:27;15.20;99.90
35607;DHT22;21729;58.392;15.656;2023-07-02T01:13:57;15.20;99.90
35607;DHT22;21729;58.392;15.656;2023-07-02T01:16:26;15.20;99.90
35607;DHT22;21729;58.392;15.656;2023-07-02T01:18:53;15.20;99.90
35607;DHT22;21729;58.392;15.656;2023-07-02T01:21:23;15.20;99.90
35607;DHT22;21729;58.392;15.656;2023-07-02T01:23:51;15.20;99.90
35607;DHT22;21729;58.392;15.656;2023-07-02T01:26:18;15.20;99.90
35607;DHT22;21729;58.392;15.656;2023-07-02T01:28:46;15.20;99.90
35607;DHT22;21729;58.392;15.656;2023-07-02T01:31:13;15.20;99.90
35607;DHT22;21729;58.392;15.656;2023-07-02T01:33:40;15.20;99.90
35607;DHT22;21729;58.392;15.656;2023-07-02T01:36:08;15.20;99.90
35607;DHT22;21729;58.392;15.656;2023-07-02T01:38:37;15.20;99.90
35607;DHT22;21729;58.392;15.656;2023-07-02T01:41:04;15.20;99.90
35607;DHT22;21729;58.392;15.656;2023-07-02T01:43:31;15.20;99.90
35607;DHT22;21729;58.392;15.656;2023-07-02T01:45:58;15.20;99.90
35607;DHT22;21729;58.392;15.656;2023-07-02T01:48:27;15.20;99.90
35607;DHT22;21729;58.392;15.656;2023-07-02T01:50:55;15.20;99.90
35607;DHT22;21729;58.392;15.656;2023-07-02T01:53:22;15.20;99.90
35607;DHT22;21729;58.392;15.656;2023-07-02T01:55:50;15.20;99.90
35607;DHT22;21729;58.392;15.656;2023-07-02T01:58:17;15.20;99.90
35607;DHT22;21729;58.392;15.656;2023-07-02T02:00:46;15.20;99.90
35607;DHT22;21729;58.392;15.656;2023-07-02T02:03:13;15.20;99.90
35607;DHT22;21729;58.392;15.656;2023-07-02T02:05:40;15.20;99.90
35607;DHT22;21729;58.392;15.656;2023-07-02T02:08:07;15.30;99.90
35607;DHT22;21729;58.392;15.656;2023-07-02T02:10:34;15.30;99.90
35607;DHT22;21729;58.392;15.656;2023-07-02T02:13:03;15.30;99.90
35607;DHT22;21729;58.392;15.656;2023-07-02T02:15:30;15.40;99.90
35607;DHT22;21729;58.392;15.656;2023-07-02T02:17:57;15.40;99.90
35607;DHT22;21729;58.392;15.656;2023-07-02T02:20:24;15.40;99.90
35607;DHT22;21729;58.392;15.656;2023-07-02T02:22:51;15.40;99.90
35607;DHT22;21729;58.392;15.656;2023-07-02T02:25:18;15.50;99.90
35607;DHT22;21729;58.392;15.656;2023-07-02T02:27:46;15.50;99.90
35607;DHT22;21729;58.392;15.656;2023-07-02T02:30:14;15.50;99.90
35607;DHT22;21729;58.392;15.656;2023-07-02T02:32:42;15.50;99.90
35607;DHT22;21729;58.392;15.656;2023-07-02T02:35:09;15.50;99.90
35607;DHT22;21729;58.392;15.656;2023-07-02T02:37:37;15.50;99.90
35607;DHT22;21729;58.392;15.656;2023-07-02T02:40:06;15.50;99.90
35607;DHT22;21729;58.392;15.656;2023-07-02T02:42:34;15.50;99.90
35607;DHT22;21729;58.392;15.656;2023-07-02T02:45:01;15.50;99.90
35607;DHT22;21729;58.392;15.656;2023-07-02T02:47:30;15.50;99.90
35607;DHT22;21729;58.392;15.656;2023-07-02T02:49:57;15.50;99.90
35607;DHT22;21729;58.392;15.656;2023-07-02T02:52:24;15.50;99.90
35607;DHT22;21729;58.392;15.656;2023-07-02T02:54:52;15.50;99.90
35607;DHT22;21729;58.392;15.656;2023-07-02T02:57:19;15.50;99.90
35607;DHT22;21729;58.392;15.656;2023-07-02T02:59:46;15.50;99.90
35607;DHT22;21729;58.392;15.656;2023-07-02T03:02:13;15.50;99.90
35607;DHT22;21729;58.392;15.656;2023-07-02T03:04:42;15.50;99.90
35607;DHT22;21729;58.392;15.656;2023-07-02T03:07:10;15.50;99.90
35607;DHT22;21729;58.392;15.656;2023-07-02T03:09:37;15.50;99.90
35607;DHT22;21729;58.392;15.656;2023-07-02T03:12:05;15.50;99.90
35607;DHT22;21729;58.392;15.656;2023-07-02T03:14:32;15.50;99.90
35607;DHT22;21729;58.392;15.656;2023-07-02T03:16:59;15.50;99.90
35607;DHT22;21729;58.392;15.656;2023-07-02T03:19:26;15.50;99.90
35607;DHT22;21729;58.392;15.656;2023-07-02T03:21:55;15.50;99.90
35607;DHT22;21729;58.392;15.656;2023-07-02T03:24:22;15.50;99.90
35607;DHT22;21729;58.392;15.656;2023-07-02T03:26:49;15.60;99.90
35607;DHT22;21729;58.392;15.656;2023-07-02T03:29:16;15.60;99.90
35607;DHT22;21729;58.392;15.656;2023-07-02T03:31:45;15.60;99.90
35607;DHT22;21729;58.392;15.656;2023-07-02T03:34:12;15.60;99.90
35607;DHT22;21729;58.392;15.656;2023-07-02T03:36:39;15.60;99.90
35607;DHT22;21729;58.392;15.656;2023-07-02T03:39:08;15.60;99.90
35607;DHT22;21729;58.392;15.656;2023-07-02T03:41:35;15.60;99.90
35607;DHT22;21729;58.392;15.656;2023-07-02T03:44:02;15.70;99.90
35607;DHT22;21729;58.392;15.656;2023-07-02T03:46:29;15.70;99.90
35607;DHT22;21729;58.392;15.656;2023-07-02T03:48:57;15.80;99.90
35607;DHT22;21729;58.392;15.656;2023-07-02T03:51:24;15.80;99.90
35607;DHT22;21729;58.392;15.656;2023-07-02T03:53:51;15.90;99.90
35607;DHT22;21729;58.392;15.656;2023-07-02T03:56:20;15.90;99.90
35607;DHT22;21729;58.392;15.656;2023-07-02T03:58:47;15.90;99.90
35607;DHT22;21729;58.392;15.656;2023-07-02T04:01:14;15.90;99.90
35607;DHT22;21729;58.392;15.656;2023-07-02T04:03:47;15.90;99.90
35607;DHT22;21729;58.392;15.656;2023-07-02T04:06:14;15.90;99.90
35607;DHT22;21729;58.392;15.656;2023-07-02T04:08:42;15.90;99.90
35607;DHT22;21729;58.392;15.656;2023-07-02T04:11:09;15.90;99.90
35607;DHT22;21729;58.392;15.656;2023-07-02T04:13:38;15.90;99.90
35607;DHT22;21729;58.392;15.656;2023-07-02T04:16:07;15.90;99.90
35607;DHT22;21729;58.392;15.656;2023-07-02T04:18:34;15.90;99.90
35607;DHT22;21729;58.392;15.656;2023-07-02T04:21:02;15.80;99.90
35607;DHT22;21729;58.392;15.656;2023-07-02T04:23:29;15.80;99.90
35607;DHT22;21729;58.392;15.656;2023-07-02T04:25:56;15.80;99.90
35607;DHT22;21729;58.392;15.656;2023-07-02T04:28:23;15.70;94.40
35607;DHT22;21729;58.392;15.656;2023-07-02T04:30:52;15.70;25.40
35607;DHT22;21729;58.392;15.656;2023-07-02T04:33:19;15.70;99.80
35607;DHT22;21729;58.392;15.656;2023-07-02T04:35:46;15.70;79.60
35607;DHT22;21729;58.392;15.656;2023-07-02T04:38:13;15.80;82.70
35607;DHT22;21729;58.392;15.656;2023-07-02T04:40:40;15.90;73.60
35607;DHT22;21729;58.392;15.656;2023-07-02T04:43:10;15.90;52.40
35607;DHT22;21729;58.392;15.656;2023-07-02T04:45:37;16.00;65.60
35607;DHT22;21729;58.392;15.656;2023-07-02T04:48:06;16.00;55.90
35607;DHT22;21729;58.392;15.656;2023-07-02T04:50:34;16.10;6.00
35607;DHT22;21729;58.392;15.656;2023-07-02T04:53:01;16.00;1.00
35607;DHT22;21729;58.392;15.656;2023-07-02T04:55:28;16.00;1.00
35607;DHT22;21729;58.392;15.656;2023-07-02T04:57:55;16.00;16.10
35607;DHT22;21729;58.392;15.656;2023-07-02T05:00:22;15.80;48.10
35607;DHT22;21729;58.392;15.656;2023-07-02T05:02:50;15.80;46.80
35607;DHT22;21729;58.392;15.656;2023-07-02T05:05:18;15.80;49.90
35607;DHT22;21729;58.392;15.656;2023-07-02T05:07:45;15.70;99.90
35607;DHT22;21729;58.392;15.656;2023-07-02T05:10:13;15.60;99.90
35607;DHT22;21729;58.392;15.656;2023-07-02T05:12:40;15.60;99.90
35607;DHT22;21729;58.392;15.656;2023-07-02T05:15:08;15.60;99.90
35607;DHT22;21729;58.392;15.656;2023-07-02T05:17:35;15.60;99.90
35607;DHT22;21729;58.392;15.656;2023-07-02T05:20:02;15.60;99.90
35607;DHT22;21729;58.392;15.656;2023-07-02T05:22:32;15.60;99.90
35607;DHT22;21729;58.392;15.656;2023-07-02T05:24:59;15.60;99.90
35607;DHT22;21729;58.392;15.656;2023-07-02T05:27:26;15.60;99.90
35607;DHT22;21729;58.392;15.656;2023-07-02T05:29:53;15.80;99.90
35607;DHT22;21729;58.392;15.656;2023-07-02T05:32:20;15.80;99.90
35607;DHT22;21729;58.392;15.656;2023-07-02T05:34:47;15.90;99.90
35607;DHT22;21729;58.392;15.656;2023-07-02T05:37:15;16.00;99.90
35607;DHT22;21729;58.392;15.656;2023-07-02T05:39:43;16.00;99.90
35607;DHT22;21729;58.392;15.656;2023-07-02T05:42:10;16.10;99.90
35607;DHT22;21729;58.392;15.656;2023-07-02T05:44:37;16.10;99.90
35607;DHT22;21729;58.392;15.656;2023-07-02T05:47:05;16.10;99.90
35607;DHT22;21729;58.392;15.656;2023-07-02T05:49:32;16.10;77.70
35607;DHT22;21729;58.392;15.656;2023-07-02T05:51:59;16.30;97.70
35607;DHT22;21729;58.392;15.656;2023-07-02T05:54:26;16.20;1.00
35607;DHT22;21729;58.392;15.656;2023-07-02T05:56:55;16.40;1.00
35607;DHT22;21729;58.392;15.656;2023-07-02T05:59:22;16.40;1.00
35607;DHT22;21729;58.392;15.656;2023-07-02T06:01:49;16.50;99.90
35607;DHT22;21729;58.392;15.656;2023-07-02T06:04:16;16.40;99.90
35607;DHT22;21729;58.392;15.656;2023-07-02T06:06:43;16.40;1.40
35607;DHT22;21729;58.392;15.656;2023-07-02T06:09:10;16.30;99.90
35607;DHT22;21729;58.392;15.656;2023-07-02T06:11:37;16.20;99.90
35607;DHT22;21729;58.392;15.656;2023-07-02T06:14:06;16.40;99.90
35607;DHT22;21729;58.392;15.656;2023-07-02T06:16:33;16.40;1.00
35607;DHT22;21729;58.392;15.656;2023-07-02T06:19:01;16.60;1.00
35607;DHT22;21729;58.392;15.656;2023-07-02T06:21:28;16.60;99.90
35607;DHT22;21729;58.392;15.656;2023-07-02T06:23:56;16.90;99.90
35607;DHT22;21729;58.392;15.656;2023-07-02T06:26:24;17.00;99.90
35607;DHT22;21729;58.392;15.656;2023-07-02T06:28:51;17.10;99.90
35607;DHT22;21729;58.392;15.656;2023-07-02T06:31:20;17.20;99.90
35607;DHT22;21729;58.392;15.656;2023-07-02T06:33:47;17.10;99.90
35607;DHT22;21729;58.392;15.656;2023-07-02T06:36:14;17.30;99.90
35607;DHT22;21729;58.392;15.656;2023-07-02T06:38:41;17.40;99.90
35607;DHT22;21729;58.392;15.656;2023-07-02T06:41:09;17.60;99.90
35607;DHT22;21729;58.392;15.656;2023-07-02T06:43:36;17.60;99.90
35607;DHT22;21729;58.392;15.656;2023-07-02T06:46:03;17.60;99.90
35607;DHT22;21729;58.392;15.656;2023-07-02T06:48:31;17.60;99.90
35607;DHT22;21729;58.392;15.656;2023-07-02T06:51:00;17.80;99.90
35607;DHT22;21729;58.392;15.656;2023-07-02T06:53:27;17.70;99.90
35607;DHT22;21729;58.392;15.656;2023-07-02T06:55:54;17.70;99.90
35607;DHT22;21729;58.392;15.656;2023-07-02T06:58:21;17.70;99.90
35607;DHT22;21729;58.392;15.656;2023-07-02T07:00:48;17.70;53.50
35607;DHT22;21729;58.392;15.656;2023-07-02T07:03:16;17.70;23.10
35607;DHT22;21729;58.392;15.656;2023-07-02T07:05:45;17.60;99.90
35607;DHT22;21729;58.392;15.656;2023-07-02T07:08:12;17.60;58.30
35607;DHT22;21729;58.392;15.656;2023-07-02T07:10:40;17.70;62.00
35607;DHT22;21729;58.392;15.656;2023-07-02T07:13:07;17.60;36.90
35607;DHT22;21729;58.392;15.656;2023-07-02T07:15:34;17.40;23.70
35607;DHT22;21729;58.392;15.656;2023-07-02T07:18:02;17.30;28.50
35607;DHT22;21729;58.392;15.656;2023-07-02T07:20:30;17.20;99.90
35607;DHT22;21729;58.392;15.656;2023-07-02T07:22:58;17.30;95.20
35607;DHT22;21729;58.392;15.656;2023-07-02T07:25:25;17.50;54.60
35607;DHT22;21729;58.392;15.656;2023-07-02T07:27:53;17.60;35.70
35607;DHT22;21729;58.392;15.656;2023-07-02T07:30:20;17.80;59.10
35607;DHT22;21729;58.392;15.656;2023-07-02T07:32:49;18.00;13.90
35607;DHT22;21729;58.392;15.656;2023-07-02T07:35:16;18.20;1.00
35607;DHT22;21729;58.392;15.656;2023-07-02T07:37:44;18.10;2.20
35607;DHT22;21729;58.392;15.656;2023-07-02T07:40:13;18.00;1.00
35607;DHT22;21729;58.392;15.656;2023-07-02T07:42:40;18.20;1.00
35607;DHT22;21729;58.392;15.656;2023-07-02T07:45:09;18.30;1.00
35607;DHT22;21729;58.392;15.656;2023-07-02T07:47:37;18.40;1.00
35607;DHT22;21729;58.392;15.656;2023-07-02T07:50:05;18.40;1.00
35607;DHT22;21729;58.392;15.656;2023-07-02T07:52:36;18.70;1.00
35607;DHT22;21729;58.392;15.656;2023-07-02T07:55:04;19.30;1.00
35607;DHT22;21729;58.392;15.656;2023-07-02T07:57:34;19.20;1.00
35607;DHT22;21729;58.392;15.656;2023-07-02T08:00:01;19.30;99.90
35607;DHT22;21729;58.392;15.656;2023-07-02T08:02:29;19.20;99.90
35607;DHT22;21729;58.392;15.656;2023-07-02T08:04:57;19.80;99.90
35607;DHT22;21729;58.392;15.656;2023-07-02T08:07:24;19.90;99.90
35607;DHT22;21729;58.392;15.656;2023-07-02T08:09:51;19.50;99.90
35607;DHT22;21729;58.392;15.656;2023-07-02T08:12:18;19.10;99.90
35607;DHT22;21729;58.392;15.656;2023-07-02T08:14:46;18.60;1.00
35607;DHT22;21729;58.392;15.656;2023-07-02T08:17:13;17.70;1.00
35607;DHT22;21729;58.392;15.656;2023-07-02T08:19:40;17.10;1.00
35607;DHT22;21729;58.392;15.656;2023-07-02T08:22:07;16.90;99.90
35607;DHT22;21729;58.392;15.656;2023-07-02T08:24:34;16.40;99.90
35607;DHT22;21729;58.392;15.656;2023-07-02T08:27:01;16.30;99.90
35607;DHT22;21729;58.392;15.656;2023-07-02T08:29:29;16.20;1.00
35607;DHT22;21729;58.392;15.656;2023-07-02T08:31:58;16.30;1.00
35607;DHT22;21729;58.392;15.656;2023-07-02T08:34:25;16.40;1.00
35607;DHT22;21729;58.392;15.656;2023-07-02T08:36:52;16.60;99.90
35607;DHT22;21729;58.392;15.656;2023-07-02T08:39:19;16.80;99.90
35607;DHT22;21729;58.392;15.656;2023-07-02T08:41:48;17.00;99.90
35607;DHT22;21729;58.392;15.656;2023-07-02T08:44:20;17.20;99.90
35607;DHT22;21729;58.392;15.656;2023-07-02T08:46:48;17.30;99.90
35607;DHT22;21729;58.392;15.656;2023-07-02T08:49:18;17.30;99.90
35607;DHT22;21729;58.392;15.656;2023-07-02T08:51:46;17.30;99.90
35607;DHT22;21729;58.392;15.656;2023-07-02T08:54:13;17.30;99.90
35607;DHT22;21729;58.392;15.656;2023-07-02T08:56:40;17.40;99.90
35607;DHT22;21729;58.392;15.656;2023-07-02T08:59:08;17.40;99.90
35607;DHT22;21729;58.392;15.656;2023-07-02T09:01:45;17.50;99.90
35607;DHT22;21729;58.392;15.656;2023-07-02T09:04:17;17.20;99.90
35607;DHT22;21729;58.392;15.656;2023-07-02T09:06:45;17.20;99.90
35607;DHT22;21729;58.392;15.656;2023-07-02T09:09:12;17.30;99.90
35607;DHT22;21729;58.392;15.656;2023-07-02T09:11:49;17.30;21.70
35607;DHT22;21729;58.392;15.656;2023-07-02T09:14:27;17.20;1.00
35607;DHT22;21729;58.392;15.656;2023-07-02T09:17:04;17.40;1.00
35607;DHT22;21729;58.392;15.656;2023-07-02T09:19:33;17.50;1.00
35607;DHT22;21729;58.392;15.656;2023-07-02T09:22:00;17.80;1.00
35607;DHT22;21729;58.392;15.656;2023-07-02T09:24:29;18.00;1.00
35607;DHT22;21729;58.392;15.656;2023-07-02T09:26:57;18.50;1.00
35607;DHT22;21729;58.392;15.656;2023-07-02T09:29:26;18.90;1.00
35607;DHT22;21729;58.392;15.656;2023-07-02T09:31:54;21.40;99.90
35607;DHT22;21729;58.392;15.656;2023-07-02T09:34:27;22.40;99.90
35607;DHT22;21729;58.392;15.656;2023-07-02T09:36:56;20.70;99.90
35607;DHT22;21729;58.392;15.656;2023-07-02T09:39:26;19.80;99.90
35607;DHT22;21729;58.392;15.656;2023-07-02T09:41:55;19.30;99.90
35607;DHT22;21729;58.392;15.656;2023-07-02T09:44:26;18.70;99.90
35607;DHT22;21729;58.392;15.656;2023-07-02T09:47:00;18.90;99.90
35607;DHT22;21729;58.392;15.656;2023-07-02T09:49:31;18.70;99.90
35607;DHT22;21729;58.392;15.656;2023-07-02T09:52:01;19.60;99.90
35607;DHT22;21729;58.392;15.656;2023-07-02T09:54:29;22.40;26.10
35607;DHT22;21729;58.392;15.656;2023-07-02T09:56:56;23.60;1.00
35607;DHT22;21729;58.392;15.656;2023-07-02T09:59:23;23.20;99.90
35607;DHT22;21729;58.392;15.656;2023-07-02T10:01:51;22.00;99.90
35607;DHT22;21729;58.392;15.656;2023-07-02T10:04:19;21.70;1.00
35607;DHT22;21729;58.392;15.656;2023-07-02T10:06:50;22.10;99.90
35607;DHT22;21729;58.392;15.656;2023-07-02T10:09:20;21.60;99.90
35607;DHT22;21729;58.392;15.656;2023-07-02T10:11:48;21.30;99.90
35607;DHT22;21729;58.392;15.656;2023-07-02T10:14:15;20.40;1.00
35607;DHT22;21729;58.392;15.656;2023-07-02T10:16:49;20.00;1.00
35607;DHT22;21729;58.392;15.656;2023-07-02T10:19:17;19.30;1.00
35607;DHT22;21729;58.392;15.656;2023-07-02T10:21:44;19.50;1.00
35607;DHT22;21729;58.392;15.656;2023-07-02T10:24:13;19.70;1.00
35607;DHT22;21729;58.392;15.656;2023-07-02T10:26:54;19.90;1.00
35607;DHT22;21729;58.392;15.656;2023-07-02T10:29:22;20.30;1.00
35607;DHT22;21729;58.392;15.656;2023-07-02T10:31:50;21.10;99.90
35607;DHT22;21729;58.392;15.656;2023-07-02T10:34:31;21.60;99.90
35607;DHT22;21729;58.392;15.656;2023-07-02T10:36:59;21.70;99.90
35607;DHT22;21729;58.392;15.656;2023-07-02T10:39:27;22.40;99.90
35607;DHT22;21729;58.392;15.656;2023-07-02T10:42:05;21.40;99.90
35607;DHT22;21729;58.392;15.656;2023-07-02T10:44:33;20.30;99.90
35607;DHT22;21729;58.392;15.656;2023-07-02T10:47:00;20.20;99.90
35607;DHT22;21729;58.392;15.656;2023-07-02T10:49:31;20.80;99.90
35607;DHT22;21729;58.392;15.656;2023-07-02T10:51:59;21.10;99.90
35607;DHT22;21729;58.392;15.656;2023-07-02T10:54:27;20.20;99.90
35607;DHT22;21729;58.392;15.656;2023-07-02T10:57:06;20.90;99.90
35607;DHT22;21729;58.392;15.656;2023-07-02T10:59:33;20.60;99.90
35607;DHT22;21729;58.392;15.656;2023-07-02T11:02:01;20.00;99.90
35607;DHT22;21729;58.392;15.656;2023-07-02T11:04:29;20.70;99.90
35607;DHT22;21729;58.392;15.656;2023-07-02T11:06:57;21.10;99.90
35607;DHT22;21729;58.392;15.656;2023-07-02T11:09:24;20.80;99.90
35607;DHT22;21729;58.392;15.656;2023-07-02T11:11:53;21.10;99.90
35607;DHT22;21729;58.392;15.656;2023-07-02T11:14:29;21.20;99.90
35607;DHT22;21729;58.392;15.656;2023-07-02T11:16:57;21.30;99.90
35607;DHT22;21729;58.392;15.656;2023-07-02T11:19:24;21.10;99.90
35607;DHT22;21729;58.392;15.656;2023-07-02T11:21:52;20.60;99.90
35607;DHT22;21729;58.392;15.656;2023-07-02T11:24:27;21.10;99.90
35607;DHT22;21729;58.392;15.656;2023-07-02T11:26:55;21.30;99.90
35607;DHT22;21729;58.392;15.656;2023-07-02T11:29:22;21.30;99.90
35607;DHT22;21729;58.392;15.656;2023-07-02T11:31:51;20.80;99.90
35607;DHT22;21729;58.392;15.656;2023-07-02T11:34:21;20.40;99.90
35607;DHT22;21729;58.392;15.656;2023-07-02T11:36:50;20.50;99.90
35607;DHT22;21729;58.392;15.656;2023-07-02T11:39:19;20.90;99.90
35607;DHT22;21729;58.392;15.656;2023-07-02T11:41:48;21.20;99.90
35607;DHT22;21729;58.392;15.656;2023-07-02T11:44:16;20.90;99.90
35607;DHT22;21729;58.392;15.656;2023-07-02T11:46:43;20.30;99.90
35607;DHT22;21729;58.392;15.656;2023-07-02T11:49:14;20.10;99.90
35607;DHT22;21729;58.392;15.656;2023-07-02T11:51:42;19.80;99.90
35607;DHT22;21729;58.392;15.656;2023-07-02T11:54:14;19.70;99.90
35607;DHT22;21729;58.392;15.656;2023-07-02T11:56:42;20.50;99.90
35607;DHT22;21729;58.392;15.656;2023-07-02T11:59:09;20.80;99.90
35607;DHT22;21729;58.392;15.656;2023-07-02T12:01:36;21.20;99.90
35607;DHT22;21729;58.392;15.656;2023-07-02T12:04:04;21.20;99.90
35607;DHT22;21729;58.392;15.656;2023-07-02T12:06:34;20.90;99.90
35607;DHT22;21729;58.392;15.656;2023-07-02T12:09:01;21.10;99.90
35607;DHT22;21729;58.392;15.656;2023-07-02T12:11:28;21.70;99.90
35607;DHT22;21729;58.392;15.656;2023-07-02T12:13:55;21.30;99.90
35607;DHT22;21729;58.392;15.656;2023-07-02T12:16:23;20.70;99.90
35607;DHT22;21729;58.392;15.656;2023-07-02T12:18:51;20.00;99.90
35607;DHT22;21729;58.392;15.656;2023-07-02T12:21:18;19.80;99.90
35607;DHT22;21729;58.392;15.656;2023-07-02T12:23:46;19.60;99.90
35607;DHT22;21729;58.392;15.656;2023-07-02T12:26:13;20.10;99.90
35607;DHT22;21729;58.392;15.656;2023-07-02T12:28:41;20.50;99.90
35607;DHT22;21729;58.392;15.656;2023-07-02T12:31:08;20.60;99.90
35607;DHT22;21729;58.392;15.656;2023-07-02T12:33:35;20.60;92.40
35607;DHT22;21729;58.392;15.656;2023-07-02T12:36:03;20.50;99.90
35607;DHT22;21729;58.392;15.656;2023-07-02T12:38:30;20.60;99.90
35607;DHT22;21729;58.392;15.656;2023-07-02T12:40:58;20.50;99.90
35607;DHT22;21729;58.392;15.656;2023-07-02T12:43:25;20.40;99.90
35607;DHT22;21729;58.392;15.656;2023-07-02T12:45:53;20.20;99.90
35607;DHT22;21729;58.392;15.656;2023-07-02T12:48:20;20.40;99.90
35607;DHT22;21729;58.392;15.656;2023-07-02T12:50:54;20.30;99.90
35607;DHT22;21729;58.392;15.656;2023-07-02T12:53:21;20.60;99.90
35607;DHT22;21729;58.392;15.656;2023-07-02T12:55:48;20.50;99.90
35607;DHT22;21729;58.392;15.656;2023-07-02T12:58:17;20.90;99.90
35607;DHT22;21729;58.392;15.656;2023-07-02T13:00:44;21.10;99.90
35607;DHT22;21729;58.392;15.656;2023-07-02T13:03:13;21.00;83.20
35607;DHT22;21729;58.392;15.656;2023-07-02T13:05:40;21.10;85.10
35607;DHT22;21729;58.392;15.656;2023-07-02T13:08:07;20.90;32.90
35607;DHT22;21729;58.392;15.656;2023-07-02T13:10:34;20.60;68.90
35607;DHT22;21729;58.392;15.656;2023-07-02T13:13:01;20.30;48.80
35607;DHT22;21729;58.392;15.656;2023-07-02T13:15:30;20.20;62.40
35607;DHT22;21729;58.392;15.656;2023-07-02T13:17:57;20.20;49.20
35607;DHT22;21729;58.392;15.656;2023-07-02T13:20:24;20.40;40.70
35607;DHT22;21729;58.392;15.656;2023-07-02T13:22:51;20.40;31.90
35607;DHT22;21729;58.392;15.656;2023-07-02T13:25:18;20.60;63.40
35607;DHT22;21729;58.392;15.656;2023-07-02T13:27:45;20.60;32.10
35607;DHT22;21729;58.392;15.656;2023-07-02T13:30:13;20.50;23.90
35607;DHT22;21729;58.392;15.656;2023-07-02T13:32:41;20.20;37.20
35607;DHT22;21729;58.392;15.656;2023-07-02T13:35:08;20.00;68.10
35607;DHT22;21729;58.392;15.656;2023-07-02T13:37:36;20.30;84.10
35607;DHT22;21729;58.392;15.656;2023-07-02T13:40:03;20.50;59.20
35607;DHT22;21729;58.392;15.656;2023-07-02T13:42:32;20.40;87.90
35607;DHT22;21729;58.392;15.656;2023-07-02T13:44:59;20.30;54.60
35607;DHT22;21729;58.392;15.656;2023-07-02T13:47:26;20.20;64.40
35607;DHT22;21729;58.392;15.656;2023-07-02T13:49:55;20.30;80.20
35607;DHT22;21729;58.392;15.656;2023-07-02T13:52:22;20.30;73.90
35607;DHT22;21729;58.392;15.656;2023-07-02T13:54:49;20.50;87.50
35607;DHT22;21729;58.392;15.656;2023-07-02T13:57:17;20.80;93.10
35607;DHT22;21729;58.392;15.656;2023-07-02T13:59:45;20.60;74.50
35607;DHT22;21729;58.392;15.656;2023-07-02T14:02:12;20.90;99.90
35607;DHT22;21729;58.392;15.656;2023-07-02T14:04:39;20.80;88.90
35607;DHT22;21729;58.392;15.656;2023-07-02T14:07:07;20.60;82.80
35607;DHT22;21729;58.392;15.656;2023-07-02T14:09:34;20.50;99.90
35607;DHT22;21729;58.392;15.656;2023-07-02T14:12:02;20.10;99.90
35607;DHT22;21729;58.392;15.656;2023-07-02T14:14:29;20.00;99.90
35607;DHT22;21729;58.392;15.656;2023-07-02T14:16:57;19.90;99.90
35607;DHT22;21729;58.392;15.656;2023-07-02T14:19:24;19.90;99.90
35607;DHT22;21729;58.392;15.656;2023-07-02T14:21:52;19.90;99.90
35607;DHT22;21729;58.392;15.656;2023-07-02T14:24:19;19.90;99.90
35607;DHT22;21729;58.392;15.656;2023-07-02T14:26:46;20.00;99.90
35607;DHT22;21729;58.392;15.656;2023-07-02T14:29:13;19.70;99.90
35607;DHT22;21729;58.392;15.656;2023-07-02T14:31:40;19.70;99.90
35607;DHT22;21729;58.392;15.656;2023-07-02T14:34:08;20.00;99.90
35607;DHT22;21729;58.392;15.656;2023-07-02T14:36:36;20.10;99.90
35607;DHT22;21729;58.392;15.656;2023-07-02T14:39:03;20.00;99.90
35607;DHT22;21729;58.392;15.656;2023-07-02T14:41:30;19.70;99.90
35607;DHT22;21729;58.392;15.656;2023-07-02T14:44:01;19.50;97.90
35607;DHT22;21729;58.392;15.656;2023-07-02T14:46:28;19.50;99.90
35607;DHT22;21729;58.392;15.656;2023-07-02T14:48:56;19.30;99.90
35607;DHT22;21729;58.392;15.656;2023-07-02T14:51:24;19.30;99.90
35607;DHT22;21729;58.392;15.656;2023-07-02T14:53:51;19.60;99.90
35607;DHT22;21729;58.392;15.656;2023-07-02T14:56:18;19.40;99.90
35607;DHT22;21729;58.392;15.656;2023-07-02T14:58:46;19.50;99.90
35607;DHT22;21729;58.392;15.656;2023-07-02T15:01:14;19.70;99.90
35607;DHT22;21729;58.392;15.656;2023-07-02T15:03:42;19.90;99.90
35607;DHT22;21729;58.392;15.656;2023-07-02T15:06:10;20.10;99.90
35607;DHT22;21729;58.392;15.656;2023-07-02T15:08:40;20.00;99.90
35607;DHT22;21729;58.392;15.656;2023-07-02T15:11:08;19.90;99.90
35607;DHT22;21729;58.392;15.656;2023-07-02T15:13:35;19.60;99.90
35607;DHT22;21729;58.392;15.656;2023-07-02T15:16:03;19.60;99.90
35607;DHT22;21729;58.392;15.656;2023-07-02T15:18:31;19.60;99.90
35607;DHT22;21729;58.392;15.656;2023-07-02T15:20:58;19.40;99.90
35607;DHT22;21729;58.392;15.656;2023-07-02T15:23:26;19.70;99.90